This is the latest recevied weather packets stored in our database for station/object KF0FSA. If no packets are shown the sender has not sent any weather packets the latest 10 day(s).
| Time | Temp. | Humidity | Pressure | Rain* | Wind** | Luminosity | Snow |
|---|---|---|---|---|---|---|---|
| 1777934485 | 13.33° C | 37% | 953.9 hPa | 0 mm | - | 299 W/m² | - |
| 1777934183 | 12.78° C | 37% | 953.8 hPa | 0 mm | - | 304 W/m² | - |
| 1777933883 | 13.33° C | 38% | 953.9 hPa | 0 mm | - | 221 W/m² | - |
| 1777933580 | 13.33° C | 37% | 953.8 hPa | 0 mm | - | 188 W/m² | - |
| 1777933280 | 13.33° C | 36% | 953.6 hPa | 0 mm | - | 170 W/m² | - |
| 1777932980 | 13.33° C | 36% | 953.7 hPa | 0 mm | - | 188 W/m² | - |
| 1777932680 | 13.33° C | 36% | 953.5 hPa | 0 mm | - | 240 W/m² | - |
| 1777932377 | 13.89° C | 39% | 953.5 hPa | 0 mm | - | 277 W/m² | - |
| 1777932077 | 13.33° C | 39% | 953.5 hPa | 0 mm | - | 296 W/m² | - |
| 1777931778 | 13.33° C | 40% | 953.6 hPa | 0 mm | - | 271 W/m² | - |
| 1777931478 | 13.33° C | 39% | 953.6 hPa | 0 mm | - | 215 W/m² | - |
| 1777931178 | 13.33° C | 40% | 953.7 hPa | 0 mm | - | 244 W/m² | - |
| 1777930877 | 13.33° C | 39% | 953.7 hPa | 0 mm | - | 248 W/m² | - |
| 1777930577 | 13.33° C | 40% | 953.6 hPa | 0 mm | - | 320 W/m² | - |
| 1777930277 | 13.33° C | 40% | 953.6 hPa | 0 mm | - | 319 W/m² | - |
| 1777930102 | 13.33° C | 39% | 953.7 hPa | 0 mm | - | 290 W/m² | - |
| 1777929675 | 13.33° C | 41% | 953.8 hPa | 0 mm | - | 190 W/m² | - |
| 1777929500 | 13.33° C | 39% | 953.9 hPa | 0 mm | - | 218 W/m² | - |
| 1777929074 | 13.33° C | 39% | 953.8 hPa | 0 mm | - | 295 W/m² | - |
| 1777928771 | 13.33° C | 40% | 953.8 hPa | 0 mm | - | 316 W/m² | - |
| 1777928472 | 13.89° C | 40% | 953.9 hPa | 0 mm | - | 272 W/m² | - |
| 1777928172 | 13.89° C | 39% | 953.7 hPa | 0 mm | - | 392 W/m² | - |
| 1777927872 | 13.89° C | 40% | 953.7 hPa | 0 mm | - | 341 W/m² | - |
| 1777927568 | 13.89° C | 41% | 953.8 hPa | 0 mm | - | 259 W/m² | - |
| 1777927269 | 13.89° C | 40% | 953.7 hPa | 0 mm | - | 408 W/m² | - |
* Rain latest hour (hover to see other rain measurements)
** Current wind speed in m/s (hover to see current wind gust speed)